createdAt,value
2022-08-26T00:05:09.292Z,21.3
2022-08-26T00:15:09.965Z,21.3
2022-08-26T00:25:10.512Z,21.3
2022-08-26T00:35:11.081Z,21.3
2022-08-26T00:45:11.737Z,21.4
2022-08-26T00:55:11.709Z,21.2
2022-08-26T01:05:12.405Z,21.2
2022-08-26T01:15:13.143Z,21
2022-08-26T01:25:13.498Z,21.2
2022-08-26T01:45:15.112Z,20.6
2022-08-26T02:35:18.156Z,20.4
2022-08-26T03:35:21.904Z,19.9
2022-08-26T03:45:22.081Z,19.9
2022-08-26T03:55:23.676Z,19.8
2022-08-26T04:05:22.914Z,19.6
2022-08-26T04:15:23.146Z,19.5
2022-08-26T04:25:24.147Z,19.5
2022-08-26T04:35:26.076Z,19.5
2022-08-26T04:45:25.010Z,19.4
2022-08-26T05:05:26.036Z,19.6
2022-08-26T05:15:26.918Z,19.7
2022-08-26T05:25:27.742Z,19.8
2022-08-26T05:35:27.892Z,20
2022-08-26T05:45:28.769Z,20
2022-08-26T05:55:29.416Z,20.2
2022-08-26T06:05:29.555Z,20.3
2022-08-26T06:15:29.722Z,20.4
2022-08-26T06:25:30.052Z,20.4
2022-08-26T06:35:30.789Z,20.6
2022-08-26T06:45:31.205Z,20.8
2022-08-26T06:55:31.987Z,20.8
2022-08-26T07:05:32.884Z,20.8
2022-08-26T07:08:11.266Z,20.8
2022-08-26T07:15:41.464Z,21
2022-08-26T07:25:41.652Z,20.8
2022-08-26T07:35:41.979Z,21.1
2022-08-26T07:55:42.833Z,21.2
2022-08-26T08:05:43.817Z,21.4
2022-08-26T08:15:44.781Z,21.6
2022-08-26T08:25:45.710Z,21.5
2022-08-26T08:45:47.183Z,21.6
2022-08-26T08:55:47.881Z,21.7
2022-08-26T09:05:48.976Z,22.1
2022-08-26T09:15:49.253Z,22.1
2022-08-26T09:25:49.892Z,22
2022-08-26T09:35:50.937Z,22.3
2022-08-26T09:45:52.120Z,21.9
2022-08-26T09:55:51.575Z,22.2
2022-08-26T10:05:51.955Z,22.3
2022-08-26T10:15:52.057Z,22.4
2022-08-26T10:25:52.764Z,22.1
2022-08-26T10:45:53.779Z,22.4
2022-08-26T10:55:54.586Z,22.4
2022-08-26T11:05:55.256Z,22.6
2022-08-26T11:15:55.899Z,22.6
2022-08-26T11:25:56.930Z,22.9
2022-08-26T11:35:57.345Z,22.9
2022-08-26T11:45:58.421Z,22.9
2022-08-26T11:55:59.252Z,23
2022-08-26T12:05:59.980Z,23.3
2022-08-26T12:16:00.614Z,23.3
2022-08-26T12:26:01.125Z,23.4
2022-08-26T12:36:01.420Z,23
2022-08-26T12:46:02.255Z,23.3
2022-08-26T12:56:03.217Z,23.6
2022-08-26T13:06:03.452Z,23.5
2022-08-26T13:16:04.242Z,23.6
2022-08-26T13:36:05.596Z,23.4
2022-08-26T13:46:06.276Z,23.5
2022-08-26T13:56:10.456Z,23.6
2022-08-26T14:06:07.319Z,23.6
2022-08-26T14:16:08.029Z,23.5
2022-08-26T14:26:08.920Z,23.3
2022-08-26T14:46:09.855Z,23.4
2022-08-26T14:56:13.720Z,23.3
2022-08-26T15:06:10.971Z,23.1
2022-08-26T15:16:11.897Z,23
2022-08-26T15:26:12.754Z,22.8
2022-08-26T15:36:12.986Z,22.7
2022-08-26T15:46:13.164Z,22.3
2022-08-26T15:56:13.986Z,22.4
2022-08-26T16:06:14.381Z,22.3
2022-08-26T16:16:14.949Z,22
2022-08-26T16:26:15.554Z,21.9
2022-08-26T16:36:16.520Z,21.8
2022-08-26T16:46:17.295Z,21.6
2022-08-26T16:56:17.595Z,21.7
2022-08-26T17:06:18.571Z,21.7
2022-08-26T17:16:20.464Z,21.6
2022-08-26T17:26:19.211Z,21.4
2022-08-26T17:36:19.333Z,21.3
2022-08-26T17:56:20.576Z,21.4
2022-08-26T18:06:21.174Z,21.4
2022-08-26T18:16:21.434Z,21.4
2022-08-26T18:26:21.868Z,21.4
2022-08-26T18:36:22.779Z,21.3
2022-08-26T19:06:25.322Z,20.9
2022-08-26T19:26:26.537Z,20.8
2022-08-26T19:36:27.613Z,20.7
2022-08-26T19:46:28.653Z,20.5
2022-08-26T20:16:30.457Z,20.3
2022-08-26T20:56:32.789Z,19.6
2022-08-26T21:06:33.644Z,19.4
2022-08-26T21:26:35.081Z,19.3
2022-08-26T21:36:35.860Z,18.9
2022-08-26T21:46:36.713Z,18.9
2022-08-26T21:56:37.365Z,18.6
2022-08-26T22:06:37.706Z,18.3
2022-08-26T22:46:39.604Z,17.6
2022-08-26T22:56:40.661Z,17.6
2022-08-26T23:16:41.667Z,17.6
2022-08-26T23:26:42.296Z,17.6
2022-08-26T23:36:43.250Z,17.5
2022-08-26T23:56:44.063Z,17.6
